Arlington, TX (76002)

5:45 AM CDT on May 27, 2017 (GMT -0500)
Deer Valley | | Change Station
Active Advisory: Heat Advisory

Elev 594 ft 32.62 °N, 97.08 °W | Updated 59 days ago

Overcast
Overcast
71.1 °F
Feels Like 71.1 °F
N
7.6
Wind Variable Wind from SSE
Gusts 7.6 mph

Today
High -- | Low -- °F
--% Chance of Precip.
Yesterday
High -- | Low -- °F
Precip. -- in
Pressure 29.78 in
Visibility 10.0 miles
Clouds Overcast 1900 ft
Dew Point 51.5 °F
Humidity 50%
Rainfall in
Snow Depth Not available.
6:23 AM 8:28 PM
Waxing Crescent, 4% visible
METAR KGKY 270953Z AUTO 16010KT 10SM OVC019 26/23 A2981 RMK AO2 SLP085 T02610233
Pressure 29.78 in
Visibility 10.0 miles
Clouds Overcast 1900 ft
Dew Point 51.5 °F
Humidity 50%
Rainfall in
Snow Depth Not available.
6:23 AM 8:28 PM
Waxing Crescent, 4% visible
METAR KGKY 270953Z AUTO 16010KT 10SM OVC019 26/23 A2981 RMK AO2 SLP085 T02610233

Get Your Daily Forecast Email!

Thanks for signing up!

Be on the lookout for a verification email in your inbox.

You'll start receiving severe weather alerts in your inbox..

×

10-Day Weather Forecast

Almanac

Astronomy

May. 27, 2017 Rise Set
Actual Time
Civil Twilight
Nautical Twilight
Astronomical Twilight
Moon
Length of Visible Light
Length of Day
Tomorrow will be .
, % of the Moon is Illuminated

Today's Extremes

State Highs State Lows

Community

WunderPhotos

Category 6

Welcome to Category 6. This is the collective home for Weather Underground's featured writeups by Dr. Jeff Masters (right), Bob Henson (left), Chris Burt, and other regular contributors.

Nearby

Air Quality

  Air Quality AQ Index Pollutant
Not available.

Snow Depth

Station Depth Elevation

Earthquake Activity

City Distance Mag. Time & Date
Minimum magnitude displayed is 2.5.

Coastal Water Temperatures

Place Temperature

Stations

Nearby Weather Stations

Station Location Temp. Windchill Dew Point Humidity Wind Precip. Elev Updated Type
                   

Watches & Warnings

Heat Advisory
Issued: 3:53 AM CDT May. 27, 2017 – National Weather Service

... Heat advisory remains in effect from 2 PM this afternoon to
7 PM CDT this evening...

* temperatures... Max temperatures will climb into the mid 90s
with heat index values in the 103 to 107 degree range.

* Impacts... heat exhaustion and heat stroke will be possible for
individuals that work or play outside without adequate shade
or water.

Precautionary/preparedness actions...

Be sure to check on persons with health problems and the
elderly... as they are the most susceptible to heat exhaustion and
heat stroke. Never leave Young children or pets in an enclosed
vehicle... even for a short time... as temperatures can quickly
rise to life threatening levels.

Take extra precautions if you work or spend time outside. When
possible... reschedule strenuous activities to early morning or
evening. Know the signs and symptoms of heat exhaustion and heat
stroke. Wear light weight and loose fitting clothing when
possible and drink plenty of water.